Tiempo atmosférico en la estación meteorológica de Bailo, Huesca (722 m.)



Fecha
DESCASC
Temp. máxima en grados centígrados (hora)
DESCASC
Temp. mínima en grados centígrados (hora)
DESCASC
Temp. media en grados centígrados
DESCASC
Racha de viento máxima en m/sg (hora)
DESCASC
Velocidad máxima media en intervalos de 10 minutos(hora)
DESCASC
Precipitaciones diarias en mm
DESCASC
Precipitaciones de 00:00 a 06:00 en mm
DESCASC
Precipitaciones de 06:00 a 12:00 en mm
DESCASC
Precipitaciones de 12:00 a 18:00 en mm
DESCASC
Precipitaciones de 18:00 a 24:00 en mm
DESCASC
17-08-2018 26.5 (14:40) 12.9 (23:20) 19.7 17.22 (18:10) 11.39 (18:10) 0 0 0 0 0
16-08-2018 30.2 (16:40) 17.1 (05:30) 23.7 10.83 (19:40) 7.5 (19:40) 0 0 0 0 0
15-08-2018 30.5 (18:10) 12 (07:20) 21.3 7.22 (19:10) 5 (19:10) 0 0 0 0 0
14-08-2018 25.9 (16:40) 15.8 (07:00) 20.8 12.78 (12:20) 8.61 (14:40) 0 0 0 0 0
13-08-2018 28.8 (14:40) 15.8 (08:00) 22.3 10.83 (20:20) 7.5 (19:50) 0 0 0 0 0
12-08-2018 31.9 (15:20) 20 (00:00) 25.9 17.5 (21:00) 10.83 (20:50) 0 0 0 0 0
11-08-2018 30.5 (17:20) 14.4 (00:00) 22.4 10.56 (23:30) 7.22 (23:30) 0 0 0 0 0
10-08-2018 28 (17:30) 12 (00:00) 20 8.06 (14:20) 4.17 (16:00) 0 0 0 0 0
09-08-2018 24.1 (16:20) 14.1 (00:00) 19.1 13.61 (00:30) 9.44 (01:00) 0 0 0 0 0
08-08-2018 30.5 (17:10) 14.5 (00:00) 22.5 19.17 (21:50) 11.39 (22:10) 0 0 0 0 0
07-08-2018 34.1 (16:10) 17.6 (00:00) 25.8 23.61 (18:50) 15.28 (18:50) 2.4 0 0 0 2.4
06-08-2018 35.1 (17:20) 20.6 (00:00) 27.8 10 (23:40) 6.94 (23:40) 0 0 0 0 0
05-08-2018 34.6 (17:50) 17.9 (00:00) 26.2 8.89 (14:30) 5 (18:30) 0 0 0 0 0
04-08-2018 35.1 (16:50) 17.9 (07:10) 26.5 9.17 (19:50) 6.67 (19:50) 0 0 0 0 0
03-08-2018 36 (17:00) 18.2 (00:00) 27.1 11.11 (18:30) 8.06 (18:30) 0 0 0 0 0
02-08-2018 35.6 (16:40) 17.4 (00:00) 26.5 7.78 (16:40) 5.28 (18:50) 0 0 0 0 0
01-08-2018 34.1 (17:50) 16.9 (07:20) 25.5 6.67 (13:30) 4.17 (19:20) 0 0 0 0 0
31-07-2018 32.3 (14:40) 17.6 (00:00) 24.9 8.06 (15:00) 5.28 (15:40) 0 0 0 0 0
30-07-2018 33.3 (16:40) 16.4 (00:00) 24.8 9.44 (17:30) 5.28 (16:00) 0 0 0 0 0
29-07-2018 31.2 (15:30) 17.8 (00:00) 24.5 8.06 (19:10) 5.28 (18:50) 0 0 0 0 0
28-07-2018 30.1 (19:00) 18.1 (00:00) 24.1 8.33 (16:30) 5.56 (16:30) 0 0 0 0 0
27-07-2018 33.2 (16:50) 17.2 (00:00) 25.2 10.83 (12:40) 7.5 (12:40) 0 0 0 0 0
26-07-2018 34.5 (17:30) 20.5 (00:00) 27.5 8.61 (16:40) 4.72 (16:40) 0 0 0 0 0
25-07-2018 31.4 (15:10) 16.6 (00:00) 24 9.72 (18:10) 7.22 (18:10) 0.4 0 0 0.4 0
24-07-2018 32.2 (16:40) 17.7 (00:00) 25 10 (15:50) 7.22 (15:30) 0 0 0 0 0
23-07-2018 31.1 (17:10) 12.2 (00:00) 21.7 9.72 (16:40) 5.56 (16:50) 0 0 0 0 0
22-07-2018 27 (17:30) 12.5 (00:00) 19.8 10.28 (16:30) 6.94 (18:00) 0 0 0 0 0
21-07-2018 23.6 (14:40) 13.4 (00:00) 18.5 10.56 (14:30) 8.61 (17:00) 0 0 0 0 0
20-07-2018 26.6 (16:20) 16.2 (00:00) 21.4 11.39 (20:20) 8.06 (19:00) 0 0 0 0 0

Gráficas

Temp. máximas Temp. mínimas Temp. medias Precipitaciones Rachas de viento máximas Velocidades máximas media en intervalos de 10 minutos

Datos horarios

Fecha y hora oficial Temperatura (ºC) Velocidad del viento (km/h) Dirección del viento Racha (km/h) Dirección de racha Precipitación (mm) Presión (hPa) Tendencia (hPa) Humedad (%)
2018-08-18 23:00:00 17.2 4 Sudoeste 8 Sudoeste 0 -- -- 64
2018-08-18 22:00:00 19.3 0 Calma 12 Noroeste 0 -- -- 57
2018-08-18 21:00:00 20.9 7 Noroeste 23 Noroeste 0 -- -- 53
2018-08-18 20:00:00 23.8 15 Noroeste 27 Noroeste 0 -- -- 45
2018-08-18 19:00:00 23.8 17 Noroeste 25 Norte 0 -- -- 45
2018-08-18 18:00:00 25.2 9 Noroeste 27 Noroeste 0 -- -- 41
2018-08-18 17:00:00 26.6 17 Noroeste 27 Oeste 0 -- -- 38
2018-08-18 16:00:00 26.3 14 Oeste 25 Noroeste 0 -- -- 39
2018-08-18 15:00:00 26 10 Noroeste 23 Noroeste 0 -- -- 40
2018-08-18 14:00:00 24.6 8 Norte 19 Noroeste 0 -- -- 43
2018-08-18 13:00:00 22.6 6 Noroeste 14 Norte 0 -- -- 46
2018-08-18 12:00:00 20.1 6 Norte 13 Norte 0 -- -- 51
2018-08-18 11:00:00 17.3 5 Noroeste 15 Noroeste 0 -- -- 58
2018-08-18 10:00:00 15.3 4 Norte 9 Norte 0 -- -- 65
2018-08-18 09:00:00 13.1 4 Este 6 Nordeste 0 -- -- 71
2018-08-18 08:00:00 10.4 0 Calma 9 Sudoeste 0 -- -- 79
2018-08-18 07:00:00 9.5 0 Calma 6 Sudoeste 0 -- -- 83
2018-08-18 06:00:00 10 2 Oeste 8 Sudoeste 0 -- -- 79
2018-08-18 05:00:00 10.7 5 Sudoeste 8 Sudoeste 0 -- -- 76
2018-08-18 04:00:00 11.3 6 Sudoeste 8 Sudoeste 0 -- -- 73
2018-08-18 03:00:00 11.8 0 Calma 5 Sudoeste 0 -- -- 71
2018-08-18 02:00:00 12.4 0 Calma 5 Este 0 -- -- 69
2018-08-18 01:00:00 13.2 2 Este 4 Sudeste 0 -- -- 65
2018-08-18 00:00:00 12.9 3 Sur 8 Sur 0 -- -- 67
2018-08-17 23:00:00 13.4 3 Sur 7 Sur 0 -- -- 64
2018-08-17 22:00:00 14.7 5 Norte 19 Noroeste 0 -- -- 58
2018-08-17 21:00:00 16.2 14 Noroeste 38 Noroeste 0 -- -- 55
2018-08-17 20:00:00 19 23 Noroeste 49 Noroeste 0 -- -- 50
2018-08-17 19:00:00 20.6 35 Noroeste 62 Noroeste 0 -- -- 49
2018-08-17 18:00:00 21.4 39 Noroeste 58 Noroeste 0 -- -- 53
2018-08-17 17:00:00 23.1 37 Noroeste 56 Noroeste 0 -- -- 49
2018-08-17 16:00:00 24.7 38 Noroeste 55 Norte 0 -- -- 45
2018-08-17 15:00:00 26.2 28 Norte 45 Noroeste 0 -- -- 44
2018-08-17 14:00:00 26.1 22 Noroeste 34 Noroeste 0 -- -- 44
2018-08-17 13:00:00 25.3 11 Noroeste 27 Noroeste 0 -- -- 44
2018-08-17 12:00:00 22.9 8 Norte 22 Noroeste 0 -- -- 51
2018-08-17 11:00:00 21.4 12 Norte 22 Noroeste 0 -- -- 56
2018-08-17 10:00:00 19.8 8 Norte 18 Noroeste 0 -- -- 62
2018-08-17 09:00:00 18.8 3 Este 8 Este 0 -- -- 71
2018-08-17 08:00:00 16 3 Sudoeste 6 Sudoeste 0 -- -- 83
2018-08-17 07:00:00 15.5 3 Sudoeste 5 Sudoeste 0 -- -- 83
2018-08-17 06:00:00 15.7 0 Calma 4 Sudoeste 0 -- -- 82
2018-08-17 05:00:00 16.2 0 Calma 5 Sudoeste 0 -- -- 80
2018-08-17 04:00:00 16.6 4 Sudoeste 8 Sur 0 -- -- 78
2018-08-17 03:00:00 17.9 0 Calma 8 Sudeste 0 -- -- 74
2018-08-17 02:00:00 18.2 6 Sudeste 8 Sudeste 0 -- -- 73
2018-08-17 01:00:00 19.1 6 Sudoeste 18 Noroeste 0 -- -- 71
2018-08-17 00:00:00 19.4 12 Noroeste 27 Noroeste 0 -- -- 71
2018-08-16 23:00:00 20.4 18 Noroeste 28 Noroeste 0 -- -- 68
2018-08-16 22:00:00 20.8 19 Noroeste 26 Noroeste 0 -- -- 69
2018-08-16 21:00:00 22.6 18 Noroeste 32 Norte 0 -- -- 65
2018-08-16 20:00:00 24.9 22 Noroeste 39 Norte 0 -- -- 59
2018-08-16 19:00:00 29.4 12 Noroeste 28 Noroeste 0 -- -- 42
2018-08-16 18:00:00 28.9 18 Noroeste 29 Noroeste 0 -- -- 44
2018-08-16 17:00:00 29.5 16 Noroeste 33 Oeste 0 -- -- 43
2018-08-16 16:00:00 28.3 10 Noroeste 29 Noroeste 0 -- -- 44
2018-08-16 15:00:00 29 8 Norte 27 Sudoeste 0 -- -- 41
2018-08-16 14:00:00 29.7 6 Sudeste 20 Sudeste 0 -- -- 37
2018-08-16 13:00:00 28.2 8 Sur 26 Sur 0 -- -- 41
2018-08-16 12:00:00 26.2 18 Sur 29 Sur 0 -- -- 47
2018-08-16 11:00:00 24.7 14 Sur 23 Sur 0 -- -- 51
2018-08-16 10:00:00 23.3 16 Sur 22 Sur 0 -- -- 56
2018-08-16 09:00:00 20.7 6 Sur 19 Este 0 -- -- 62
2018-08-16 08:00:00 19.5 10 Sur 23 Sur 0 -- -- 66
2018-08-16 07:00:00 17.7 9 Sur 16 Sudeste 0 -- -- 68
2018-08-16 06:00:00 17.4 0 Calma 6 Sur 0 -- -- 68
2018-08-16 05:00:00 17.8 5 Sur 9 Sur 0 -- -- 66
2018-08-16 04:00:00 18.3 2 Nordeste 8 Sudeste 0 -- -- 65
2018-08-16 03:00:00 19.3 4 Sudeste 11 Este 0 -- -- 61
2018-08-16 02:00:00 19.8 0 Calma 12 Sudeste 0 -- -- 60
2018-08-16 01:00:00 20.1 8 Este 15 Sudeste 0 -- -- 58
2018-08-16 00:00:00 21.7 4 Sudoeste 13 Sudoeste 0 -- -- 52
2018-08-15 23:00:00 22.5 8 Sudoeste 12 Sudoeste 0 -- -- 50
2018-08-15 22:00:00 23.4 5 Sudoeste 13 Sudoeste 0 -- -- 52
2018-08-15 21:00:00 26.2 5 Sudoeste 14 Oeste 0 -- -- 46
2018-08-15 20:00:00 29.1 11 Oeste 26 Noroeste 0 -- -- 40
2018-08-15 19:00:00 29.7 7 Norte 22 Norte 0 -- -- 39
2018-08-15 18:00:00 30.2 6 Norte 17 Oeste 0 -- -- 36
2018-08-15 17:00:00 30 10 Noroeste 24 Noroeste 0 -- -- 37
2018-08-15 16:00:00 29.9 12 Noroeste 23 Noroeste 0 -- -- 38
2018-08-15 15:00:00 28.2 7 Noroeste 18 Norte 0 -- -- 38
2018-08-15 14:00:00 27.1 6 Norte 20 Este 0 -- -- 41
2018-08-15 13:00:00 25.9 8 Este 17 Este 0 -- -- 42
2018-08-15 12:00:00 24.2 5 Este 12 Nordeste 0 -- -- 47
2018-08-15 11:00:00 20.8 5 Nordeste 9 Nordeste 0 -- -- 54
2018-08-15 10:00:00 17.8 3 Noroeste 9 Nordeste 0 -- -- 63
2018-08-15 09:00:00 15.7 4 Este 6 Este 0 -- -- 73
2018-08-15 08:00:00 13.2 0 Calma 4 Este 0 -- -- 80
2018-08-15 07:00:00 12.1 0 Calma 3 Oeste 0 -- -- 84
2018-08-15 06:00:00 12.6 0 Calma 4 Oeste 0 -- -- 81
2018-08-15 05:00:00 13.1 0 Calma 5 Sudoeste 0 -- -- 80
2018-08-15 04:00:00 13.6 3 Oeste 5 Sudoeste 0 -- -- 78
2018-08-15 03:00:00 14.3 3 Sudoeste 5 Sudoeste 0 -- -- 75
2018-08-15 02:00:00 14.4 4 Oeste 9 Sudoeste 0 -- -- 73
2018-08-15 01:00:00 15.5 6 Sudoeste 8 Sudoeste 0 -- -- 69
2018-08-15 00:00:00 16.2 5 Sur 8 Sur 0 -- -- 66
2018-08-14 23:00:00 17.2 2 Sur 8 Noroeste 0 -- -- 62
2018-08-14 22:00:00 17.7 6 Noroeste 19 Noroeste 0 -- -- 61
2018-08-14 21:00:00 19.9 10 Noroeste 28 Noroeste 0 -- -- 55
2018-08-14 20:00:00 22.8 18 Noroeste 33 Noroeste 0 -- -- 47
2018-08-14 19:00:00 24.2 23 Noroeste 39 Noroeste 0 -- -- 43
2018-08-14 18:00:00 24.6 29 Noroeste 40 Noroeste 0 -- -- 42
2018-08-14 17:00:00 25.5 30 Noroeste 43 Noroeste 0 -- -- 40
2018-08-14 16:00:00 25.2 26 Noroeste 40 Noroeste 0 -- -- 42
2018-08-14 15:00:00 24.5 28 Noroeste 41 Noroeste 0 -- -- 44
2018-08-14 14:00:00 24.3 22 Noroeste 36 Noroeste 0 -- -- 43
2018-08-14 13:00:00 23.2 25 Noroeste 46 Oeste 0 -- -- 43
2018-08-14 12:00:00 21.4 24 Noroeste 37 Noroeste 0 -- -- 51
2018-08-14 11:00:00 20.5 21 Noroeste 40 Norte 0 -- -- 53
2018-08-14 10:00:00 19.1 26 Noroeste 40 Noroeste 0 -- -- 56
2018-08-14 09:00:00 17.7 21 Noroeste 35 Noroeste 0 -- -- 64
2018-08-14 08:00:00 16.3 18 Noroeste 34 Noroeste 0 -- -- 68
2018-08-14 07:00:00 15.8 19 Noroeste 37 Noroeste 0 -- -- 71
2018-08-14 06:00:00 16 24 Noroeste 41 Noroeste 0 -- -- 70
2018-08-14 05:00:00 16.3 23 Noroeste 39 Noroeste 0 -- -- 72
2018-08-14 04:00:00 16.6 26 Noroeste 39 Noroeste 0 -- -- 71
2018-08-14 03:00:00 16.8 20 Noroeste 34 Noroeste 0 -- -- 69
2018-08-14 02:00:00 16.9 14 Noroeste 41 Noroeste 0 -- -- 68
2018-08-14 01:00:00 17.3 23 Noroeste 36 Noroeste 0 -- -- 66
2018-08-14 00:00:00 17.1 11 Noroeste 30 Noroeste 0 -- -- 64
2018-08-13 23:00:00 17.7 20 Noroeste 37 Noroeste 0 -- -- 67
2018-08-13 22:00:00 18.4 16 Noroeste 30 Noroeste 0 -- -- 66
2018-08-13 21:00:00 20.7 20 Noroeste 39 Noroeste 0 -- -- 59
2018-08-13 20:00:00 24 24 Noroeste 37 Noroeste 0 -- -- 50
2018-08-13 19:00:00 26.8 21 Noroeste 34 Norte 0 -- -- 41
2018-08-13 18:00:00 27.7 16 Noroeste 37 Norte 0 -- -- 39
2018-08-13 17:00:00 28.4 21 Noroeste 37 Noroeste 0 -- -- 38
2018-08-13 16:00:00 28.4 22 Noroeste 37 Noroeste 0 -- -- 40
2018-08-13 15:00:00 28.4 21 Noroeste 32 Noroeste 0 -- -- 40
2018-08-13 14:00:00 26.9 10 Norte 21 Noroeste 0 -- -- 46
2018-08-13 13:00:00 26.6 6 Nordeste 15 Este 0 -- -- 48
2018-08-13 12:00:00 24.7 5 Noroeste 13 Noroeste 0 -- -- 53
2018-08-13 11:00:00 22.1 5 Norte 10 Noroeste 0 -- -- 58
2018-08-13 10:00:00 20.2 4 Norte 8 Nordeste 0 -- -- 66
2018-08-13 09:00:00 18 3 Nordeste 7 Este 0 -- -- 77
2018-08-13 08:00:00 15.8 0 Calma 4 Este 0 -- -- 79
2018-08-13 07:00:00 15.9 0 Calma 5 Oeste 0 -- -- 78
2018-08-13 06:00:00 16.6 4 Noroeste 6 Noroeste 0 -- -- 76
2018-08-13 05:00:00 17.6 0 Calma 6 Este 0 -- -- 70
2018-08-13 04:00:00 18.1 3 Sudoeste 13 Noroeste 0 -- -- 69
2018-08-13 03:00:00 19.1 10 Sudeste 21 Sur 0 -- -- 66
2018-08-13 02:00:00 20.7 14 Sur 22 Sur 0 -- -- 59
2018-08-13 01:00:00 20.9 8 Sur 15 Sur 0 -- -- 57
2018-08-13 00:00:00 21.5 10 Sudeste 24 Sudeste 0 -- -- 54
2018-08-12 23:00:00 22.2 11 Sudeste 24 Sudeste 0 -- -- 53
2018-08-12 22:00:00 22.8 11 Sudeste 56 Sur 0 -- -- 47
2018-08-12 21:00:00 23.5 37 Sur 63 Sur 0 -- -- 45
2018-08-12 20:00:00 25.2 24 Sudoeste 43 Sudoeste 0 -- -- 44
2018-08-12 19:00:00 26 19 Sur 31 Sur 0 -- -- 58
2018-08-12 18:00:00 27.4 10 Sudeste 22 Sur 0 -- -- 54
2018-08-12 17:00:00 28.7 15 Sudoeste 38 Sudoeste 0 -- -- 52
2018-08-12 16:00:00 30 22 Sudoeste 30 Sudoeste 0 -- -- 45
2018-08-12 15:00:00 31.7 14 Sudeste 30 Sur 0 -- -- 42
2018-08-12 14:00:00 30.7 17 Sudoeste 29 Sudoeste 0 -- -- 44
2018-08-12 13:00:00 29.4 12 Sur 26 Sur 0 -- -- 51
2018-08-12 12:00:00 28.1 16 Sudeste 29 Sudeste 0 -- -- 55
2018-08-12 11:00:00 25.4 14 Sur 22 Sur 0 -- -- 66
2018-08-12 10:00:00 23.7 14 Sur 23 Sur 0 -- -- 72
2018-08-12 09:00:00 21.8 8 Sur 16 Sudeste 0 -- -- 79
2018-08-12 08:00:00 20.6 9 Sudeste 25 Sudeste 0 -- -- 83
2018-08-12 07:00:00 20.5 14 Sudeste 32 Sur 0 -- -- 83
2018-08-12 06:00:00 20.1 16 Sur 23 Sur 0 -- -- 86
2018-08-12 05:00:00 20.3 10 Sudeste 24 Sur 0 -- -- 83
2018-08-12 04:00:00 21.8 14 Sur 22 Sur 0 -- -- 72
2018-08-12 03:00:00 22.5 8 Sur 15 Sur 0 -- -- 71
2018-08-12 02:00:00 22.9 3 Sudoeste 19 Sudeste 0 -- -- 69
2018-08-12 01:00:00 23.2 12 Sudeste 32 Sur 0 -- -- 73
2018-08-12 00:00:00 24.6 22 Sudoeste 38 Sudoeste 0 -- -- 69
2018-08-11 23:00:00 25.8 22 Sudoeste 33 Sur 0 -- -- 59
2018-08-11 22:00:00 26.1 18 Sudoeste 26 Sudoeste 0 -- -- 55
2018-08-11 21:00:00 27 14 Sudoeste 19 Sur 0 -- -- 50
2018-08-11 20:00:00 28.5 10 Sudoeste 21 Sur 0 -- -- 42
2018-08-11 19:00:00 30.1 10 Sur 19 Sur 0 -- -- 40
2018-08-11 18:00:00 29.4 5 Sur 20 Sur 0 -- -- 44
2018-08-11 17:00:00 30.3 11 Oeste 24 Sudeste 0 -- -- 43
2018-08-11 16:00:00 29.7 9 Sudeste 23 Sudeste 0 -- -- 45
2018-08-11 15:00:00 28.5 13 Sur 25 Sur 0 -- -- 47
2018-08-11 14:00:00 26.8 13 Sur 26 Sur 0 -- -- 52
2018-08-11 13:00:00 26.3 14 Sur 26 Sudoeste 0 -- -- 52
2018-08-11 12:00:00 25.7 14 Sur 24 Sudeste 0 -- -- 57
2018-08-11 11:00:00 23.5 13 Sur 25 Sur 0 -- -- 62
2018-08-11 10:00:00 21.7 17 Sur 26 Sur 0 -- -- 64
2018-08-11 09:00:00 18.4 6 Sudeste 14 Sur 0 -- -- 76
2018-08-11 08:00:00 15.3 0 Calma 4 Sudoeste 0 -- -- 87
2018-08-11 07:00:00 14.7 2 Norte 6 Norte 0 -- -- 86
2018-08-11 06:00:00 15.5 0 Calma 3 Nordeste 0 -- -- 83
2018-08-11 05:00:00 16 0 Calma 5 Noroeste 0 -- -- 82
2018-08-11 04:00:00 16.3 3 Sudoeste 5 Sudoeste 0 -- -- 80
2018-08-11 03:00:00 16.9 2 Norte 5 Sudoeste 0 -- -- 77
2018-08-11 02:00:00 17.6 2 Oeste 6 Oeste 0 -- -- 75
2018-08-11 01:00:00 18 4 Oeste 9 Sudoeste 0 -- -- 73
2018-08-11 00:00:00 19.6 2 Sur 8 Sudeste 0 -- -- 66
2018-08-10 23:00:00 21.1 3 Norte 21 Sudoeste 0 -- -- 61
2018-08-10 22:00:00 22.1 15 Sudoeste 20 Sudoeste 0 -- -- 56
2018-08-10 21:00:00 24.6 12 Sudoeste 21 Sur 0 -- -- 49
2018-08-10 20:00:00 26.9 10 Sudoeste 15 Sudoeste 0 -- -- 41
2018-08-10 19:00:00 27.5 6 Oeste 12 Oeste 0 -- -- 39
2018-08-10 18:00:00 26.9 10 Sudoeste 22 Sudeste 0 -- -- 39
2018-08-10 17:00:00 27.1 10 Sudeste 25 Sur 0 -- -- 39
2018-08-10 16:00:00 27.1 15 Sur 24 Sur 0 -- -- 38
2018-08-10 15:00:00 26.5 15 Sudeste 29 Sudeste 0 -- -- 39
2018-08-10 14:00:00 26 14 Sudeste 24 Sur 0 -- -- 39
2018-08-10 13:00:00 24.6 14 Sur 24 Sur 0 -- -- 39
2018-08-10 12:00:00 23.7 13 Sudeste 22 Sudeste 0 -- -- 46
2018-08-10 11:00:00 20.7 8 Este 13 Sudeste 0 -- -- 55
2018-08-10 10:00:00 18 5 Este 10 Sudeste 0 -- -- 61
2018-08-10 09:00:00 15.8 2 Norte 6 Oeste 0 -- -- 69
2018-08-10 08:00:00 13 2 Sudeste 4 Este 0 -- -- 79
2018-08-10 07:00:00 12.4 3 Noroeste 7 Noroeste 0 -- -- 80
2018-08-10 06:00:00 12.4 0 Calma 5 Sudoeste 0 -- -- 79
2018-08-10 05:00:00 13.3 4 Sudoeste 8 Sudoeste 0 -- -- 74
2018-08-10 04:00:00 14.3 4 Sudoeste 6 Sur 0 -- -- 70
2018-08-10 03:00:00 14 5 Sudoeste 7 Sudoeste 0 -- -- 72
2018-08-10 02:00:00 13.9 3 Sur 6 Sudeste 0 -- -- 72
2018-08-10 01:00:00 14.5 4 Sur 6 Sur 0 -- -- 69
2018-08-10 00:00:00 14.1 3 Sudoeste 6 Sur 0 -- -- 70
2018-08-09 23:00:00 14.8 4 Oeste 12 Noroeste 0 -- -- 68
2018-08-09 22:00:00 15.8 8 Noroeste 27 Norte 0 -- -- 65
2018-08-09 21:00:00 17.9 23 Noroeste 39 Noroeste 0 -- -- 59
2018-08-09 20:00:00 20.1 21 Noroeste 37 Norte 0 -- -- 53
2018-08-09 19:00:00 21.6 26 Noroeste 41 Noroeste 0 -- -- 51
2018-08-09 18:00:00 22.9 29 Noroeste 45 Noroeste 0 -- -- 49
2018-08-09 17:00:00 23.8 25 Norte 40 Noroeste 0 -- -- 46
2018-08-09 16:00:00 23.9 24 Norte 38 Norte 0 -- -- 45
2018-08-09 15:00:00 23.1 23 Norte 39 Norte 0 -- -- 49
2018-08-09 14:00:00 22.8 20 Norte 39 Noroeste 0 -- -- 52
2018-08-09 13:00:00 22.1 14 Noroeste 30 Noroeste 0 -- -- 56
2018-08-09 12:00:00 19 9 Norte 21 Noroeste 0 -- -- 65
2018-08-09 11:00:00 17.4 8 Norte 23 Noroeste 0 -- -- 72
2018-08-09 10:00:00 15.8 14 Norte 24 Norte 0 -- -- 80
2018-08-09 09:00:00 16.8 14 Norte 24 Norte 0 -- -- 80
2018-08-09 08:00:00 19.6 14 Norte 23 Norte 0 -- -- 74
2018-08-09 07:00:00 21.5 14 Sur 25 Sur 0 -- -- 74
2018-08-09 06:00:00 20.9 10 Sur 25 Sur 0 -- -- 74
2018-08-09 05:00:00 20.7 19 Sur 32 Sur 0 -- -- 70
2018-08-09 04:00:00 20.7 23 Sur 38 Sur 0 -- -- 70
2018-08-09 03:00:00 20.9 26 Sur 44 Sur 0 -- -- 67
2018-08-09 02:00:00 21.1 29 Sur 45 Sudeste 0 -- -- 66
2018-08-09 01:00:00 21.5 34 Sur 49 Sur 0 -- -- 66
2018-08-09 00:00:00 21.6 31 Sur 45 Sudeste 0 -- -- 68
2018-08-08 23:00:00 22.2 27 Sur 61 Sudeste 0 -- -- 65
2018-08-08 22:00:00 24.7 39 Sur 69 Sur 0 -- -- 52
2018-08-08 21:00:00 26.3 20 Sudeste 42 Sur 0 -- -- 44
2018-08-08 20:00:00 27.7 27 Sur 48 Sudeste 0 -- -- 44
2018-08-08 19:00:00 29.9 24 Sudeste 45 Sudeste 0 -- -- 44
2018-08-08 18:00:00 30.3 18 Sur 37 Sudeste 0 -- -- 41
2018-08-08 17:00:00 30.3 12 Sudeste 37 Sudeste 0 -- -- 42
2018-08-08 16:00:00 29.7 23 Sudeste 44 Sudeste 0 -- -- 43
2018-08-08 15:00:00 28.5 24 Sur 41 Sur 0 -- -- 48
2018-08-08 14:00:00 27.9 30 Sudeste 43 Sur 0 -- -- 50
2018-08-08 13:00:00 26.4 22 Sur 39 Sur 0 -- -- 58
2018-08-08 12:00:00 24.7 25 Sur 41 Sur 0 -- -- 65
2018-08-08 11:00:00 24.2 16 Sur 32 Sur 0 -- -- 69
2018-08-08 10:00:00 20.2 5 Nordeste 11 Nordeste 0 -- -- 79
2018-08-08 09:00:00 17.3 4 Nordeste 9 Nordeste 0 -- -- 88
2018-08-08 08:00:00 15.4 0 Calma 6 Noroeste 0 -- -- 94
2018-08-08 07:00:00 14.5 7 Noroeste 10 Noroeste 0 -- -- 93
2018-08-08 06:00:00 15.2 4 Sudoeste 7 Noroeste 0 -- -- 92
2018-08-08 05:00:00 15.7 3 Sudoeste 12 Noroeste 0 -- -- 91
2018-08-08 04:00:00 15.9 4 Norte 8 Sudoeste 0 -- -- 88
2018-08-08 03:00:00 16 4 Nordeste 8 Sur 0 -- -- 88
2018-08-08 02:00:00 16.8 4 Sudoeste 8 Sudeste 0 -- -- 86
2018-08-08 01:00:00 17 6 Sur 8 Sudoeste 0 -- -- 87
2018-08-08 00:00:00 17.6 4 Sur 8 Sur 0.2 -- -- 87
2018-08-07 23:00:00 18.2 2 Norte 10 Sudoeste 0 -- -- 83
2018-08-07 22:00:00 18.6 7 Este 23 Sudoeste 0 -- -- 77
2018-08-07 21:00:00 19.8 10 Sudeste 24 Noroeste 0 -- -- 79
2018-08-07 20:00:00 20.5 14 Nordeste 59 Oeste 2.2 -- -- 73
2018-08-07 19:00:00 24.6 39 Oeste 85 Oeste 0 -- -- 62
2018-08-07 18:00:00 31.7 26 Sur 41 Sudoeste 0 -- -- 35
2018-08-07 17:00:00 33.5 18 Sudoeste 31 Sur 0 -- -- 32
2018-08-07 16:00:00 33.7 13 Sur 30 Sur 0 -- -- 29
2018-08-07 15:00:00 32.3 15 Sur 29 Sudoeste 0 -- -- 37
2018-08-07 14:00:00 30.4 22 Sur 42 Sudoeste 0 -- -- 42
2018-08-07 13:00:00 29.5 26 Sur 36 Sur 0 -- -- 45
2018-08-07 12:00:00 28 18 Sur 31 Sur 0 -- -- 50
2018-08-07 11:00:00 27.2 15 Sur 27 Sur 0 -- -- 53
2018-08-07 10:00:00 25.4 20 Sur 32 Sur 0 -- -- 56
2018-08-07 09:00:00 24.5 16 Sur 28 Sur 0 -- -- 59
2018-08-07 08:00:00 23 9 Sur 25 Sur 0 -- -- 63
2018-08-07 07:00:00 22.1 14 Sudeste 24 Sudeste 0 -- -- 65
2018-08-07 06:00:00 22.3 11 Sudeste 20 Sur 0 -- -- 65
2018-08-07 05:00:00 23.4 13 Sur 24 Sur 0 -- -- 62
2018-08-07 04:00:00 24.2 15 Sur 23 Sur 0 -- -- 60
2018-08-07 03:00:00 24.9 12 Sur 18 Sudeste 0 -- -- 59
2018-08-07 02:00:00 25.5 6 Sudeste 17 Sur 0 -- -- 57
2018-08-07 01:00:00 26.4 14 Sur 30 Sur 0 -- -- 53
2018-08-07 00:00:00 27.1 21 Sur 36 Sur 0 -- -- 48
2018-08-06 23:00:00 28 21 Sur 26 Sur 0 -- -- 37
2018-08-06 22:00:00 28.4 5 Sur 12 Sudoeste 0 -- -- 35
2018-08-06 21:00:00 28.9 10 Oeste 18 Oeste 0 -- -- 36
2018-08-06 20:00:00 33.2 12 Oeste 30 Oeste 0 -- -- 29
2018-08-06 19:00:00 34.4 11 Norte 21 Norte 0 -- -- 28
2018-08-06 18:00:00 35 10 Noroeste 22 Norte 0 -- -- 29
2018-08-06 17:00:00 34.7 5 Nordeste 21 Noroeste 0 -- -- 30
2018-08-06 16:00:00 34.6 8 Nordeste 17 Noroeste 0 -- -- 31
2018-08-06 15:00:00 33.6 5 Noroeste 21 Oeste 0 -- -- 32
2018-08-06 14:00:00 33.2 8 Sudeste 23 Sur 0 -- -- 33
2018-08-06 13:00:00 32 9 Sur 20 Sudeste 0 -- -- 34
2018-08-06 12:00:00 30.5 12 Sur 21 Sur 0 -- -- 39
2018-08-06 11:00:00 28.5 10 Sur 19 Sur 0 -- -- 45
2018-08-06 10:00:00 24.8 3 Noroeste 10 Norte 0 -- -- 56
2018-08-06 09:00:00 22.4 3 Nordeste 8 Nordeste 0 -- -- 60
2018-08-06 08:00:00 20.8 4 Este 15 Sur 0 -- -- 64
2018-08-06 07:00:00 22.2 11 Sur 17 Sur 0 -- -- 56
2018-08-06 06:00:00 22.5 11 Sudeste 18 Sudeste 0 -- -- 55
2018-08-06 05:00:00 21.9 4 Sur 15 Sur 0 -- -- 60
2018-08-06 04:00:00 21.2 2 Norte 8 Sudeste 0 -- -- 70
2018-08-06 03:00:00 21.2 4 Sudeste 10 Nordeste 0 -- -- 69
2018-08-06 02:00:00 21.8 2 Sur 8 Oeste 0 -- -- 70
2018-08-06 01:00:00 22.8 5 Oeste 9 Sudoeste 0 -- -- 66
2018-08-06 00:00:00 24.7 4 Sur 8 Sur 0 -- -- 60
2018-08-05 23:00:00 25.9 4 Sudeste 8 Sudeste 0 -- -- 56
2018-08-05 22:00:00 27.2 4 Oeste 15 Oeste 0 -- -- 51
2018-08-05 21:00:00 29.7 9 Oeste 21 Noroeste 0 -- -- 46
2018-08-05 20:00:00 32.3 16 Noroeste 23 Noroeste 0 -- -- 37
2018-08-05 19:00:00 34.2 18 Noroeste 29 Noroeste 0 -- -- 28
2018-08-05 18:00:00 34.4 17 Noroeste 27 Noroeste 0 -- -- 27
2018-08-05 17:00:00 34 10 Oeste 26 Oeste 0 -- -- 31
2018-08-05 16:00:00 33.8 10 Noroeste 27 Noroeste 0 -- -- 34
2018-08-05 15:00:00 33.8 16 Noroeste 32 Oeste 0 -- -- 34
2018-08-05 14:00:00 32.2 13 Noroeste 25 Noroeste 0 -- -- 36
2018-08-05 13:00:00 31.3 7 Este 13 Nordeste 0 -- -- 36
2018-08-05 12:00:00 29.3 5 Nordeste 12 Este 0 -- -- 39
2018-08-05 11:00:00 26.6 3 Noroeste 8 Este 0 -- -- 44
2018-08-05 10:00:00 24.7 4 Este 8 Este 0 -- -- 50
2018-08-05 09:00:00 21.8 2 Nordeste 5 Nordeste 0 -- -- 63
2018-08-05 08:00:00 19 0 Calma 4 Noroeste 0 -- -- 69
2018-08-05 07:00:00 18.3 2 Noroeste 4 Oeste 0 -- -- 70
2018-08-05 06:00:00 18.9 0 Calma 4 Sudoeste 0 -- -- 68
2018-08-05 05:00:00 19.7 0 Calma 5 Noroeste 0 -- -- 65
2018-08-05 04:00:00 20.1 2 Sudoeste 5 Nordeste 0 -- -- 64
2018-08-05 03:00:00 21 0 Calma 6 Oeste 0 -- -- 60
2018-08-05 02:00:00 21.6 3 Oeste 9 Oeste 0 -- -- 59
2018-08-05 01:00:00 22.5 4 Oeste 7 Sudoeste 0 -- -- 55
2018-08-05 00:00:00 23.3 3 Sudoeste 6 Noroeste 0 -- -- 53
2018-08-04 23:00:00 24.7 3 Sudoeste 10 Noroeste 0 -- -- 50
2018-08-04 22:00:00 24.7 8 Oeste 22 Noroeste 0 -- -- 51
2018-08-04 21:00:00 27 19 Noroeste 32 Noroeste 0 -- -- 48
2018-08-04 20:00:00 29.9 21 Norte 33 Norte 0 -- -- 43
2018-08-04 19:00:00 32.4 23 Noroeste 33 Noroeste 0 -- -- 34
2018-08-04 18:00:00 34.1 19 Noroeste 33 Noroeste 0 -- -- 31
2018-08-04 17:00:00 35.1 15 Noroeste 24 Noroeste 0 -- -- 28
2018-08-04 16:00:00 34.4 5 Este 17 Noroeste 0 -- -- 21
2018-08-04 15:00:00 33.8 5 Oeste 18 Noroeste 0 -- -- 19
2018-08-04 14:00:00 32.5 5 Norte 15 Noroeste 0 -- -- 25
2018-08-04 13:00:00 31.2 6 Noroeste 16 Noroeste 0 -- -- 26
2018-08-04 12:00:00 28.8 5 Norte 12 Este 0 -- -- 36
2018-08-04 11:00:00 27.1 5 Norte 9 Norte 0 -- -- 44
2018-08-04 10:00:00 23.8 3 Norte 5 Este 0 -- -- 54
2018-08-04 09:00:00 21.4 3 Nordeste 5 Nordeste 0 -- -- 62
2018-08-04 08:00:00 19.2 2 Este 4 Oeste 0 -- -- 68
2018-08-04 07:00:00 18.2 0 Calma 4 Oeste 0 -- -- 69
2018-08-04 06:00:00 19.1 4 Noroeste 8 Sudoeste 0 -- -- 66
2018-08-04 05:00:00 19.2 3 Oeste 6 Noroeste 0 -- -- 65
2018-08-04 04:00:00 20.7 2 Noroeste 9 Sudoeste 0 -- -- 60
2018-08-04 03:00:00 21.5 4 Sudoeste 7 Sudoeste 0 -- -- 58
2018-08-04 02:00:00 23.1 0 Calma 8 Sudoeste 0 -- -- 52
2018-08-04 01:00:00 23.4 5 Oeste 12 Oeste 0 -- -- 51
2018-08-04 00:00:00 24.1 7 Oeste 14 Noroeste 0 -- -- 47
2018-08-03 23:00:00 25.3 6 Noroeste 15 Noroeste 0 -- -- 44
2018-08-03 22:00:00 26.1 13 Noroeste 26 Noroeste 0 -- -- 43
2018-08-03 21:00:00 29 17 Noroeste 36 Noroeste 0 -- -- 38
2018-08-03 20:00:00 31.6 24 Noroeste 38 Noroeste 0 -- -- 34
2018-08-03 19:00:00 33.4 27 Noroeste 40 Noroeste 0 -- -- 29
2018-08-03 18:00:00 34.9 27 Noroeste 40 Noroeste 0 -- -- 25
2018-08-03 17:00:00 36 21 Noroeste 31 Noroeste 0 -- -- 23
2018-08-03 16:00:00 35.3 12 Noroeste 24 Noroeste 0 -- -- 25
2018-08-03 15:00:00 34.1 8 Noroeste 24 Noroeste 0 -- -- 29
2018-08-03 14:00:00 33.1 9 Nordeste 24 Noroeste 0 -- -- 31
2018-08-03 13:00:00 30.8 7 Norte 18 Noroeste 0 -- -- 45
2018-08-03 12:00:00 28.8 4 Noroeste 13 Oeste 0 -- -- 50
2018-08-03 11:00:00 27 3 Sur 10 Este 0 -- -- 53
2018-08-03 10:00:00 23.1 3 Noroeste 7 Norte 0 -- -- 66
2018-08-03 09:00:00 20.9 2 Norte 5 Norte 0 -- -- 77
2018-08-03 08:00:00 19.5 2 Oeste 4 Oeste 0 -- -- 82
2018-08-03 07:00:00 18.4 0 Calma 5 Oeste 0 -- -- 85
2018-08-03 06:00:00 18.7 3 Noroeste 6 Sur 0 -- -- 81
2018-08-03 05:00:00 19.1 3 Sudoeste 6 Sur 0 -- -- 83
2018-08-03 04:00:00 20.2 4 Noroeste 6 Noroeste 0 -- -- 80
2018-08-03 03:00:00 20.7 3 Nordeste 5 Nordeste 0 -- -- 77
2018-08-03 02:00:00 22.1 3 Oeste 5 Noroeste 0 -- -- 72
2018-08-03 01:00:00 23.2 4 Noroeste 9 Sudoeste 0 -- -- 69
2018-08-03 00:00:00 24.2 5 Oeste 9 Sudoeste 0 -- -- 66
2018-08-02 23:00:00 26.3 4 Sur 7 Sudoeste 0 -- -- 58
2018-08-02 22:00:00 27.9 6 Noroeste 12 Noroeste 0 -- -- 53
2018-08-02 21:00:00 30.9 13 Noroeste 24 Noroeste 0 -- -- 45
2018-08-02 20:00:00 33.9 16 Noroeste 25 Noroeste 0 -- -- 28
2018-08-02 19:00:00 35.1 17 Oeste 27 Oeste 0 -- -- 26
2018-08-02 18:00:00 35.5 9 Noroeste 28 Noroeste 0 -- -- 26
2018-08-02 17:00:00 35.4 16 Noroeste 28 Noroeste 0 -- -- 29
2018-08-02 16:00:00 35.2 15 Noroeste 24 Noroeste 0 -- -- 32
2018-08-02 15:00:00 34.6 6 Nordeste 18 Sudeste 0 -- -- 29
2018-08-02 14:00:00 33.7 6 Este 23 Sudeste 0 -- -- 29
2018-08-02 13:00:00 32.4 9 Sudeste 20 Sudoeste 0 -- -- 30
2018-08-02 12:00:00 29.6 5 Noroeste 12 Noroeste 0 -- -- 42
2018-08-02 11:00:00 26.8 5 Noroeste 12 Noroeste 0 -- -- 54
2018-08-02 10:00:00 23.4 3 Oeste 7 Sudeste 0 -- -- 65
2018-08-02 09:00:00 20.3 2 Noroeste 4 Noroeste 0 -- -- 76
2018-08-02 08:00:00 18.9 0 Calma 6 Norte 0 -- -- 85
2018-08-02 07:00:00 17.4 6 Oeste 8 Norte 0 -- -- 89
2018-08-02 06:00:00 18.9 2 Nordeste 4 Nordeste 0 -- -- 87
2018-08-02 05:00:00 19.3 3 Noroeste 5 Noroeste 0 -- -- 84
2018-08-02 04:00:00 20 2 Sur 8 Sudoeste 0 -- -- 80
2018-08-02 03:00:00 20.2 4 Este 6 Oeste 0 -- -- 82
2018-08-02 02:00:00 21.3 4 Oeste 6 Sudoeste 0 -- -- 77
2018-08-02 01:00:00 22.5 4 Sudoeste 6 Sudoeste 0 -- -- 73
2018-08-02 00:00:00 23.9 0 Calma 8 Este 0 -- -- 68
2018-08-01 23:00:00 25.2 3 Este 8 Sudeste 0 -- -- 62
2018-08-01 22:00:00 26.8 2 Este 10 Nordeste 0 -- -- 49
2018-08-01 21:00:00 29.8 5 Oeste 14 Norte 0 -- -- 44
2018-08-01 20:00:00 32.4 9 Norte 20 Noroeste 0 -- -- 36
2018-08-01 19:00:00 33.1 12 Norte 24 Norte 0 -- -- 36
2018-08-01 18:00:00 34 9 Oeste 22 Sur 0 -- -- 34
2018-08-01 17:00:00 33.8 12 Sur 21 Sur 0 -- -- 31
2018-08-01 16:00:00 33 12 Sur 20 Sur 0 -- -- 32
2018-08-01 15:00:00 32.6 9 Sur 23 Sudoeste 0 -- -- 32
2018-08-01 14:00:00 31.7 10 Sudoeste 24 Sur 0 -- -- 36
2018-08-01 13:00:00 30.5 10 Sur 21 Sur 0 -- -- 39
2018-08-01 12:00:00 26.8 8 Noroeste 13 Norte 0 -- -- 54
2018-08-01 11:00:00 24.1 5 Norte 11 Noroeste 0 -- -- 62
2018-08-01 10:00:00 21.6 3 Noroeste 7 Oeste 0 -- -- 70
2018-08-01 09:00:00 19.4 3 Noroeste 5 Noroeste 0 -- -- 79
2018-08-01 08:00:00 18 2 Nordeste 4 Nordeste 0 -- -- 83
2018-08-01 07:00:00 17 0 Calma 5 Sudeste 0 -- -- 86
2018-08-01 06:00:00 17.5 3 Sur 9 Noroeste 0 -- -- 86
2018-08-01 05:00:00 18 3 Noroeste 5 Sudoeste 0 -- -- 82
2018-08-01 04:00:00 18.7 3 Sudoeste 9 Sudoeste 0 -- -- 81
2018-08-01 03:00:00 19.4 2 Oeste 7 Sudoeste 0 -- -- 78
2018-08-01 02:00:00 19.9 4 Sur 9 Sudeste 0 -- -- 76
2018-08-01 01:00:00 20.6 5 Sur 8 Sudeste 0 -- -- 74
2018-08-01 00:00:00 20.9 5 Este 10 Sudeste 0 -- -- 73
2018-07-31 23:00:00 22.6 5 Este 8 Sudeste 0 -- -- 69
2018-07-31 22:00:00 24.8 5 Noroeste 14 Noroeste 0 -- -- 61
2018-07-31 21:00:00 28 6 Norte 17 Norte 0 -- -- 52
2018-07-31 20:00:00 29.6 9 Norte 28 Noroeste 0 -- -- 47
2018-07-31 19:00:00 31.2 18 Noroeste 27 Noroeste 0 -- -- 39
2018-07-31 18:00:00 30.7 17 Noroeste 24 Noroeste 0 -- -- 40
2018-07-31 17:00:00 30.7 13 Norte 24 Norte 0 -- -- 41
2018-07-31 16:00:00 31.9 13 Noroeste 27 Noroeste 0 -- -- 41
2018-07-31 15:00:00 31.9 14 Noroeste 29 Noroeste 0 -- -- 40
2018-07-31 14:00:00 31.7 12 Sudeste 24 Sur 0 -- -- 36
2018-07-31 13:00:00 29.6 7 Norte 18 Nordeste 0 -- -- 43
2018-07-31 12:00:00 27.9 5 Sudeste 13 Norte 0 -- -- 48
2018-07-31 11:00:00 25.3 5 Norte 11 Nordeste 0 -- -- 56
2018-07-31 10:00:00 23.3 3 Sur 9 Sudeste 0 -- -- 66
2018-07-31 09:00:00 21.5 4 Este 8 Este 0 -- -- 70
2018-07-31 08:00:00 19 2 Sur 6 Noroeste 0 -- -- 71
2018-07-31 07:00:00 17.6 3 Noroeste 8 Oeste 0 -- -- 73
2018-07-31 06:00:00 18.4 2 Sur 8 Noroeste 0 -- -- 72
2018-07-31 05:00:00 19.6 0 Calma 6 Sudeste 0 -- -- 66
2018-07-31 04:00:00 20.5 3 Sudoeste 10 Noroeste 0 -- -- 64
2018-07-31 03:00:00 21 3 Noroeste 5 Noroeste 0 -- -- 63
2018-07-31 02:00:00 21.9 3 Oeste 6 Oeste 0 -- -- 61
2018-07-31 01:00:00 23 2 Noroeste 10 Sudoeste 0 -- -- 59
2018-07-31 00:00:00 24.3 5 Oeste 11 Sudoeste 0 -- -- 53
2018-07-30 23:00:00 25.2 5 Noroeste 15 Sudoeste 0 -- -- 49
2018-07-30 22:00:00 25.9 14 Sudoeste 17 Sudoeste 0 -- -- 47
2018-07-30 21:00:00 28.2 12 Sudoeste 14 Sudoeste 0 -- -- 43
2018-07-30 20:00:00 31.3 11 Sur 19 Sur 0 -- -- 35
2018-07-30 19:00:00 30.7 14 Oeste 29 Oeste 0 -- -- 36
2018-07-30 18:00:00 33 17 Oeste 34 Oeste 0 -- -- 31
2018-07-30 17:00:00 33 17 Sudoeste 32 Sudoeste 0 -- -- 35
2018-07-30 16:00:00 32.9 19 Sudoeste 30 Sur 0 -- -- 33
2018-07-30 15:00:00 31.2 10 Sur 23 Sudeste 0 -- -- 41
2018-07-30 14:00:00 31.3 15 Sudeste 25 Sudeste 0 -- -- 38
2018-07-30 13:00:00 30.4 10 Sur 21 Sur 0 -- -- 41
2018-07-30 12:00:00 27.8 7 Oeste 16 Oeste 0 -- -- 50
2018-07-30 11:00:00 25 5 Noroeste 11 Norte 0 -- -- 59
2018-07-30 10:00:00 21.8 3 Noroeste 9 Noroeste 0 -- -- 67
2018-07-30 09:00:00 19.1 2 Noroeste 5 Noroeste 0 -- -- 79
2018-07-30 08:00:00 17.2 4 Noroeste 5 Noroeste 0 -- -- 83
2018-07-30 07:00:00 16.7 0 Calma 5 Sudeste 0 -- -- 85
2018-07-30 06:00:00 17 3 Noroeste 5 Noroeste 0 -- -- 83
2018-07-30 05:00:00 17.8 0 Calma 3 Norte 0 -- -- 79
2018-07-30 04:00:00 18.5 2 Nordeste 4 Sudeste 0 -- -- 80
2018-07-30 03:00:00 19.1 4 Nordeste 6 Norte 0 -- -- 76
2018-07-30 02:00:00 19.9 3 Norte 8 Sudoeste 0 -- -- 73
2018-07-30 01:00:00 21.2 5 Sudoeste 8 Sudoeste 0 -- -- 69
2018-07-30 00:00:00 22.7 4 Sudoeste 9 Sudeste 0 -- -- 63
2018-07-29 23:00:00 23.4 5 Oeste 8 Oeste 0 -- -- 62
2018-07-29 22:00:00 24.7 4 Oeste 15 Noroeste 0 -- -- 59
2018-07-29 21:00:00 27.8 10 Noroeste 25 Noroeste 0 -- -- 49
2018-07-29 20:00:00 30.5 17 Noroeste 29 Noroeste 0 -- -- 32
2018-07-29 19:00:00 31.1 16 Noroeste 27 Noroeste 0 -- -- 35
2018-07-29 18:00:00 30 6 Noroeste 18 Noroeste 0 -- -- 39
2018-07-29 17:00:00 29.3 8 Noroeste 24 Noroeste 0 -- -- 42
2018-07-29 16:00:00 29.8 12 Noroeste 21 Oeste 0 -- -- 44
2018-07-29 15:00:00 30.6 5 Sudoeste 20 Oeste 0 -- -- 38
2018-07-29 14:00:00 29.8 10 Sudoeste 22 Sur 0 -- -- 41
2018-07-29 13:00:00 29 13 Sur 24 Sur 0 -- -- 41
2018-07-29 12:00:00 27.2 13 Sur 23 Sur 0 -- -- 51
2018-07-29 11:00:00 26 9 Sur 19 Sudeste 0 -- -- 57
2018-07-29 10:00:00 24.2 11 Sur 23 Sur 0 -- -- 65
2018-07-29 09:00:00 22.1 11 Sur 19 Sur 0 -- -- 73
2018-07-29 08:00:00 19.9 6 Sudeste 19 Este 0 -- -- 75
2018-07-29 07:00:00 18.7 6 Este 23 Este 0 -- -- 76
2018-07-29 06:00:00 19.2 10 Este 24 Sur 0 -- -- 75
2018-07-29 05:00:00 19.9 11 Sur 26 Sur 0 -- -- 67
2018-07-29 04:00:00 19.1 16 Sudeste 26 Sudeste 0 -- -- 63
2018-07-29 03:00:00 18.2 4 Sudeste 10 Sudeste 0 -- -- 71
2018-07-29 02:00:00 19.1 3 Sur 7 Sudoeste 0 -- -- 69
2018-07-29 01:00:00 20.3 4 Sudoeste 6 Sur 0 -- -- 64
2018-07-29 00:00:00 21.3 4 Sudeste 9 Sudeste 0 -- -- 60
2018-07-28 23:00:00 22 6 Sur 8 Sur 0 -- -- 59
2018-07-28 22:00:00 23.6 3 Sudeste 14 Oeste 0 -- -- 54
2018-07-28 21:00:00 26.7 11 Noroeste 15 Norte 0 -- -- 46
2018-07-28 20:00:00 28.9 11 Nordeste 18 Norte 0 -- -- 37
2018-07-28 19:00:00 30.1 8 Noroeste 18 Nordeste 0 -- -- 33
2018-07-28 18:00:00 30 5 Noroeste 25 Noroeste 0 -- -- 32
2018-07-28 17:00:00 29.5 18 Noroeste 30 Noroeste 0 -- -- 31
2018-07-28 16:00:00 29.4 14 Oeste 29 Noroeste 0 -- -- 34
2018-07-28 15:00:00 29.2 13 Norte 25 Norte 0 -- -- 38
2018-07-28 14:00:00 28.4 14 Norte 24 Nordeste 0 -- -- 41
2018-07-28 13:00:00 26.6 11 Norte 22 Norte 0 -- -- 53
2018-07-28 12:00:00 25.6 7 Nordeste 17 Nordeste 0 -- -- 57
2018-07-28 11:00:00 23.8 8 Norte 16 Nordeste 0 -- -- 63
2018-07-28 10:00:00 21.9 6 Norte 10 Norte 0 -- -- 72
2018-07-28 09:00:00 20.5 3 Este 6 Este 0 -- -- 78
2018-07-28 08:00:00 18.6 0 Calma 7 Sudoeste 0 -- -- 85
2018-07-28 07:00:00 18.1 3 Sur 8 Sudoeste 0 -- -- 87
2018-07-28 06:00:00 18.2 4 Sur 6 Sur 0 -- -- 87
2018-07-28 05:00:00 18.5 3 Sudeste 6 Sudeste 0 -- -- 85
2018-07-28 04:00:00 19.4 3 Este 7 Sudeste 0 -- -- 80
2018-07-28 03:00:00 20.4 4 Noroeste 6 Noroeste 0 -- -- 75
2018-07-28 02:00:00 20.9 4 Sudoeste 7 Sudoeste 0 -- -- 74
2018-07-28 01:00:00 22.3 2 Noroeste 6 Sudoeste 0 -- -- 68
2018-07-28 00:00:00 22.9 5 Sudoeste 8 Oeste 0 -- -- 64
2018-07-27 23:00:00 24.2 4 Oeste 8 Noroeste 0 -- -- 58
2018-07-27 22:00:00 26.8 4 Nordeste 15 Sur 0 -- -- 43
2018-07-27 21:00:00 28.4 9 Sudoeste 15 Sudoeste 0 -- -- 40
2018-07-27 20:00:00 31.3 6 Sudoeste 14 Sur 0 -- -- 31
2018-07-27 19:00:00 31.6 7 Sur 21 Sudoeste 0 -- -- 32
2018-07-27 18:00:00 32.3 14 Oeste 30 Oeste 0 -- -- 29
2018-07-27 17:00:00 32.8 16 Oeste 35 Oeste 0 -- -- 26
2018-07-27 16:00:00 32.5 13 Sur 28 Sur 0 -- -- 30
2018-07-27 15:00:00 31.9 16 Sur 31 Sudeste 0 -- -- 30
2018-07-27 14:00:00 31.4 20 Sur 31 Sudoeste 0 -- -- 32
2018-07-27 13:00:00 29.6 22 Sur 39 Sur 0 -- -- 37
2018-07-27 12:00:00 28.8 18 Sur 30 Sudoeste 0 -- -- 37
2018-07-27 11:00:00 27.4 13 Sur 21 Sur 0 -- -- 40
2018-07-27 10:00:00 23.2 4 Nordeste 11 Este 0 -- -- 67
2018-07-27 09:00:00 20.1 3 Noroeste 7 Norte 0 -- -- 80
2018-07-27 08:00:00 18.4 4 Sudeste 6 Sudoeste 0 -- -- 85
2018-07-27 07:00:00 17.5 4 Norte 8 Noroeste 0 -- -- 87
2018-07-27 06:00:00 18.6 3 Oeste 7 Noroeste 0 -- -- 85
2018-07-27 05:00:00 19 0 Calma 9 Sudoeste 0 -- -- 84
2018-07-27 04:00:00 20.4 5 Sudoeste 9 Sudoeste 0 -- -- 78
2018-07-27 03:00:00 21.4 2 Este 6 Sudoeste 0 -- -- 75
2018-07-27 02:00:00 21.9 4 Sudeste 9 Sudoeste 0 -- -- 74
2018-07-27 01:00:00 23.1 0 Calma 9 Noroeste 0 -- -- 69
2018-07-27 00:00:00 24.4 3 Este 10 Este 0 -- -- 63
2018-07-26 23:00:00 25.7 2 Sur 8 Sudeste 0 -- -- 56
2018-07-26 22:00:00 27.3 4 Sur 9 Sudoeste 0 -- -- 47
2018-07-26 21:00:00 28.6 5 Norte 13 Sudoeste 0 -- -- 33
2018-07-26 20:00:00 30.2 8 Sudoeste 15 Sudoeste 0 -- -- 35
2018-07-26 19:00:00 33.2 10 Oeste 22 Sudeste 0 -- -- 26
2018-07-26 18:00:00 34.3 13 Sur 29 Sudoeste 0 -- -- 24
2018-07-26 17:00:00 34.2 12 Sudoeste 31 Sudoeste 0 -- -- 25
2018-07-26 16:00:00 34.1 14 Sur 23 Sur 0 -- -- 27
2018-07-26 15:00:00 33.3 11 Sudoeste 27 Sudeste 0 -- -- 29
2018-07-26 14:00:00 32.6 11 Sur 19 Sur 0 -- -- 31
2018-07-26 13:00:00 31.4 6 Sur 21 Oeste 0 -- -- 36
2018-07-26 12:00:00 29.7 9 Sudoeste 20 Sudeste 0 -- -- 41
2018-07-26 11:00:00 27.2 6 Este 13 Nordeste 0 -- -- 53
2018-07-26 10:00:00 25 4 Este 10 Nordeste 0 -- -- 58
2018-07-26 09:00:00 22.1 6 Nordeste 11 Sudeste 0 -- -- 67
2018-07-26 08:00:00 20.5 3 Este 14 Sur 0 -- -- 70
2018-07-26 07:00:00 20.9 9 Sur 22 Sur 0 -- -- 66
2018-07-26 06:00:00 21.5 15 Sur 22 Sur 0 -- -- 65
2018-07-26 05:00:00 22.4 16 Sur 21 Sur 0 -- -- 62
2018-07-26 04:00:00 22.3 12 Sur 18 Sur 0 -- -- 62
2018-07-26 03:00:00 22.3 8 Sur 15 Sur 0 -- -- 64
2018-07-26 02:00:00 22.7 10 Sudeste 15 Sudeste 0 -- -- 63
2018-07-26 01:00:00 22.8 12 Este 19 Sudeste 0 -- -- 61
2018-07-26 00:00:00 23.1 5 Este 9 Sudoeste 0 -- -- 57
2018-07-25 23:00:00 23.5 6 Sudoeste 9 Sudoeste 0 -- -- 54
2018-07-25 22:00:00 25.2 8 Sudoeste 10 Sudoeste 0 -- -- 53
2018-07-25 21:00:00 27.8 6 Sudoeste 8 Sudoeste 0 -- -- 50
2018-07-25 20:00:00 28.7 4 Sudeste 11 Sudeste 0 -- -- 48
2018-07-25 19:00:00 28.4 9 Este 35 Nordeste 0 -- -- 51
2018-07-25 18:00:00 26.4 25 Este 32 Este 0.4 -- -- 59
2018-07-25 17:00:00 29.9 12 Nordeste 19 Noroeste 0 -- -- 43
2018-07-25 16:00:00 31.4 9 Noroeste 21 Oeste 0 -- -- 39
2018-07-25 15:00:00 31.1 12 Noroeste 22 Oeste 0 -- -- 41
2018-07-25 14:00:00 30.7 7 Norte 23 Sur 0 -- -- 42
2018-07-25 13:00:00 29.2 6 Norte 13 Norte 0 -- -- 47
2018-07-25 12:00:00 26.2 5 Oeste 13 Oeste 0 -- -- 56
2018-07-25 11:00:00 23.9 4 Noroeste 11 Noroeste 0 -- -- 59
2018-07-25 10:00:00 22 3 Nordeste 7 Nordeste 0 -- -- 65
2018-07-25 09:00:00 19.3 3 Noroeste 5 Norte 0 -- -- 76
2018-07-25 08:00:00 18.2 0 Calma 3 Nordeste 0 -- -- 78
2018-07-25 07:00:00 16.7 0 Calma 4 Sudoeste 0 -- -- 82
2018-07-25 06:00:00 17.3 2 Nordeste 4 Sur 0 -- -- 79
2018-07-25 05:00:00 17.6 4 Norte 8 Oeste 0 -- -- 79
2018-07-25 04:00:00 17.9 2 Oeste 5 Nordeste 0 -- -- 77
2018-07-25 03:00:00 18.8 2 Este 10 Oeste 0 -- -- 74
2018-07-25 02:00:00 19.7 4 Oeste 6 Oeste 0 -- -- 71
2018-07-25 01:00:00 21.2 2 Este 8 Sudoeste 0 -- -- 69
2018-07-25 00:00:00 22.2 4 Sur 19 Sur 0 -- -- 66
2018-07-24 23:00:00 22.6 3 Oeste 14 Oeste 0 -- -- 65
2018-07-24 22:00:00 23.8 5 Oeste 17 Noroeste 0 -- -- 62
2018-07-24 21:00:00 27.2 13 Noroeste 26 Noroeste 0 -- -- 53
2018-07-24 20:00:00 29.8 17 Noroeste 30 Noroeste 0 -- -- 39
2018-07-24 19:00:00 30.9 12 Noroeste 26 Noroeste 0 -- -- 35
2018-07-24 18:00:00 31 17 Noroeste 30 Oeste 0 -- -- 34
2018-07-24 17:00:00 32.1 20 Noroeste 34 Norte 0 -- -- 32
2018-07-24 16:00:00 31.5 16 Oeste 36 Oeste 0 -- -- 33
2018-07-24 15:00:00 29.7 9 Sudoeste 22 Oeste 0 -- -- 41
2018-07-24 14:00:00 29.3 9 Noroeste 22 Noroeste 0 -- -- 46
2018-07-24 13:00:00 30.5 5 Nordeste 20 Este 0 -- -- 42
2018-07-24 12:00:00 28 6 Noroeste 15 Noroeste 0 -- -- 47
2018-07-24 11:00:00 26.1 5 Norte 12 Noroeste 0 -- -- 49
2018-07-24 10:00:00 23.4 4 Noroeste 8 Oeste 0 -- -- 55
2018-07-24 09:00:00 20.6 4 Norte 20 Sudeste 0 -- -- 63
2018-07-24 08:00:00 20.5 11 Sudeste 23 Sudeste 0 -- -- 59
2018-07-24 07:00:00 17.7 2 Norte 8 Este 0 -- -- 68
2018-07-24 06:00:00 18.2 2 Noroeste 7 Sudoeste 0 -- -- 65
2018-07-24 05:00:00 19 4 Sudeste 5 Sudeste 0 -- -- 63
2018-07-24 04:00:00 19.4 0 Calma 6 Noroeste 0 -- -- 62
2018-07-24 03:00:00 19.9 4 Oeste 6 Norte 0 -- -- 60
2018-07-24 02:00:00 21.2 2 Norte 5 Sudoeste 0 -- -- 55
2018-07-24 01:00:00 21.5 4 Oeste 6 Oeste 0 -- -- 55
2018-07-24 00:00:00 23.1 2 Oeste 7 Sudoeste 0 -- -- 48
2018-07-23 23:00:00 24.1 0 Calma 10 Nordeste 0 -- -- 47
2018-07-23 22:00:00 24.8 9 Sudoeste 14 Sudoeste 0 -- -- 45
2018-07-23 21:00:00 28.7 5 Sudoeste 10 Noroeste 0 -- -- 40
2018-07-23 20:00:00 30.4 6 Norte 14 Norte 0 -- -- 34
2018-07-23 19:00:00 30.7 13 Noroeste 25 Noroeste 0 -- -- 32
2018-07-23 18:00:00 30.8 15 Noroeste 28 Noroeste 0 -- -- 33
2018-07-23 17:00:00 30.6 17 Noroeste 35 Noroeste 0 -- -- 35
2018-07-23 16:00:00 30.4 8 Nordeste 22 Noroeste 0 -- -- 35
2018-07-23 15:00:00 29.6 15 Oeste 29 Noroeste 0 -- -- 35
2018-07-23 14:00:00 28.3 10 Oeste 21 Oeste 0 -- -- 43
2018-07-23 13:00:00 27.5 12 Este 23 Sudeste 0 -- -- 43
2018-07-23 12:00:00 26.4 6 Sudeste 15 Sudeste 0 -- -- 43
2018-07-23 11:00:00 24 10 Sudeste 18 Sur 0 -- -- 50
2018-07-23 10:00:00 20.3 5 Este 9 Este 0 -- -- 61
2018-07-23 09:00:00 16.5 3 Este 8 Nordeste 0 -- -- 74
2018-07-23 08:00:00 13.8 0 Calma 4 Este 0 -- -- 82
2018-07-23 07:00:00 12.2 3 Oeste 4 Sudoeste 0 -- -- 86
2018-07-23 06:00:00 12.7 0 Calma 5 Oeste 0 -- -- 85
2018-07-23 05:00:00 13.3 0 Calma 5 Nordeste 0 -- -- 81
2018-07-23 04:00:00 13.8 2 Este 6 Oeste 0 -- -- 80
2018-07-23 03:00:00 14.7 0 Calma 5 Oeste 0 -- -- 76
2018-07-23 02:00:00 15.9 0 Calma 6 Oeste 0 -- -- 71
2018-07-23 01:00:00 16.5 4 Oeste 6 Sudoeste 0 -- -- 69
2018-07-23 00:00:00 17.3 4 Sudoeste 8 Sudoeste 0 -- -- 66
2018-07-22 23:00:00 18.7 3 Sur 15 Oeste 0 -- -- 61
2018-07-22 22:00:00 19.8 8 Noroeste 27 Noroeste 0 -- -- 57
2018-07-22 21:00:00 22.1 17 Noroeste 30 Noroeste 0 -- -- 49
2018-07-22 20:00:00 24 20 Norte 32 Noroeste 0 -- -- 47
2018-07-22 19:00:00 25.7 18 Norte 32 Norte 0 -- -- 42
2018-07-22 18:00:00 26.3 25 Noroeste 36 Noroeste 0 -- -- 42
2018-07-22 17:00:00 26.7 22 Oeste 37 Oeste 0 -- -- 40
2018-07-22 16:00:00 26.3 22 Oeste 33 Oeste 0 -- -- 38
2018-07-22 15:00:00 26.1 17 Oeste 33 Oeste 0 -- -- 38
2018-07-22 14:00:00 25.2 17 Noroeste 26 Norte 0 -- -- 42
2018-07-22 13:00:00 23.8 9 Norte 17 Noroeste 0 -- -- 46
2018-07-22 12:00:00 20.7 4 Noroeste 11 Oeste 0 -- -- 55
2018-07-22 11:00:00 18.2 5 Oeste 10 Oeste 0 -- -- 65
2018-07-22 10:00:00 17.1 4 Noroeste 10 Este 0 -- -- 66
2018-07-22 09:00:00 16.3 3 Norte 6 Nordeste 0 -- -- 70
2018-07-22 08:00:00 13.3 2 Noroeste 5 Norte 0 -- -- 82
2018-07-22 07:00:00 12.8 2 Sur 5 Noroeste 0 -- -- 82
2018-07-22 06:00:00 13.5 3 Sudoeste 6 Sudoeste 0 -- -- 79
2018-07-22 05:00:00 13.7 0 Calma 6 Noroeste 0 -- -- 78
2018-07-22 04:00:00 14.5 3 Oeste 9 Sudoeste 0 -- -- 74
2018-07-22 03:00:00 15.2 3 Sudoeste 6 Sudoeste 0 -- -- 71
2018-07-22 02:00:00 15.4 3 Sudoeste 5 Sudoeste 0 -- -- 71
2018-07-22 01:00:00 16.2 0 Calma 6 Oeste 0 -- -- 69
2018-07-22 00:00:00 16.2 4 Oeste 8 Oeste 0 -- -- 70
2018-07-21 23:00:00 16.5 8 Oeste 12 Noroeste 0 -- -- 70
2018-07-21 22:00:00 17.7 11 Noroeste 20 Noroeste 0 -- -- 65
2018-07-21 21:00:00 18.7 13 Noroeste 24 Noroeste 0 -- -- 62
2018-07-21 20:00:00 19.9 13 Noroeste 23 Noroeste 0 -- -- 57
2018-07-21 19:00:00 20.9 15 Noroeste 26 Noroeste 0 -- -- 53
2018-07-21 18:00:00 20.9 14 Noroeste 37 Noroeste 0 -- -- 54
2018-07-21 17:00:00 21.1 31 Oeste 37 Oeste 0 -- -- 53
2018-07-21 16:00:00 22.2 24 Oeste 36 Oeste 0 -- -- 53
2018-07-21 15:00:00 23 21 Noroeste 38 Oeste 0 -- -- 51
2018-07-21 14:00:00 22.5 13 Noroeste 28 Noroeste 0 -- -- 51
2018-07-21 13:00:00 22.5 10 Noroeste 27 Noroeste 0 -- -- 50
2018-07-21 12:00:00 21 12 Norte 24 Norte 0 -- -- 53
2018-07-21 11:00:00 19.9 13 Noroeste 22 Noroeste 0 -- -- 56
2018-07-21 10:00:00 18.9 11 Norte 19 Norte 0 -- -- 60
2018-07-21 09:00:00 16.8 10 Norte 21 Noroeste 0 -- -- 66
2018-07-21 08:00:00 15.8 3 Nordeste 11 Noroeste 0 -- -- 75
2018-07-21 07:00:00 13.7 10 Noroeste 17 Oeste 0 -- -- 80
2018-07-21 06:00:00 13.9 4 Oeste 10 Noroeste 0 -- -- 79
2018-07-21 05:00:00 14.1 0 Calma 13 Noroeste 0 -- -- 77
2018-07-21 04:00:00 14.6 7 Noroeste 22 Noroeste 0 -- -- 74
2018-07-21 03:00:00 15.3 12 Noroeste 34 Noroeste 0 -- -- 72
2018-07-21 02:00:00 15.9 22 Noroeste 36 Noroeste 0 -- -- 71
2018-07-21 01:00:00 16.4 17 Noroeste 36 Noroeste 0 -- -- 70
2018-07-21 00:00:00 17 24 Noroeste 37 Noroeste 0 -- -- 71
2018-07-20 23:00:00 17 18 Noroeste 31 Noroeste 0 -- -- 72
2018-07-20 22:00:00 17.5 20 Noroeste 37 Noroeste 0 -- -- 71
2018-07-20 21:00:00 19.1 24 Noroeste 41 Noroeste 0 -- -- 66
2018-07-20 20:00:00 20.1 24 Noroeste 40 Noroeste 0 -- -- 64
2018-07-20 19:00:00 21.2 29 Noroeste 40 Noroeste 0 -- -- 64
2018-07-20 18:00:00 24.5 23 Noroeste 35 Noroeste 0 -- -- 57
2018-07-20 17:00:00 24.6 26 Noroeste 39 Noroeste 0 -- -- 56
2018-07-20 16:00:00 25.7 20 Noroeste 28 Noroeste 0 -- -- 53
2018-07-20 15:00:00 26.1 11 Oeste 22 Oeste 0 -- -- 52
2018-07-20 14:00:00 25.7 13 Noroeste 23 Noroeste 0 -- -- 54
2018-07-20 13:00:00 25.7 6 Oeste 20 Noroeste 0 -- -- 54
2018-07-20 12:00:00 24.4 7 Norte 14 Norte 0 -- -- 58
2018-07-20 11:00:00 22.5 4 Noroeste 12 Norte 0 -- -- 66
2018-07-20 10:00:00 20.6 6 Noroeste 10 Oeste 0 -- -- 72
2018-07-20 09:00:00 19.8 4 Nordeste 9 Este 0 -- -- 77
2018-07-20 08:00:00 18.1 4 Sudeste 6 Sudeste 0 -- -- 88
2018-07-20 07:00:00 16.2 3 Oeste 6 Noroeste 0 -- -- 91
2018-07-20 06:00:00 16.8 2 Oeste 5 Oeste 0 -- -- 88
2018-07-20 05:00:00 17.6 4 Sudoeste 6 Sur 0 -- -- 85
2018-07-20 04:00:00 17.9 3 Sudoeste 8 Sudeste 0 -- -- 85
2018-07-20 03:00:00 18.8 4 Sur 10 Sur 0 -- -- 84
2018-07-20 02:00:00 19.4 4 Sur 9 Sudoeste 0 -- -- 82
2018-07-20 01:00:00 20.2 6 Sudeste 12 Sudeste 0 -- -- 79
2018-07-20 00:00:00 21.3 5 Nordeste 9 Nordeste 0 -- -- 74